Flight Track Log - Related Links

Times and Time Zones

All times are in EDT time to prevent confusion due to time zone crossing. See the GJS3706 flight status page for this flight to view local times or setup timezone preferences in your user account.

Time Position Orientation Groundspeed Altitude Reporting Facility
EDT Latitude Longitude Course Direction KTS MPH feet Rate Location/Type
Sun 09:01:24 AM 42.0167 -87.9167 86° East 183 211 3,000  Level Chicago TRACON
Sun 09:02:18 AM 42.0667 -87.8833 26° Northeast 234 269 4,800 2,800 Climbing Chicago TRACON
Sun 09:03:00 AM 42.1269 -87.4603 63° Northeast  Level FlightAware Approximate
Sun 09:03:24 AM 42.1167 -87.8000 51° Northeast 273 314 8,600  Level Chicago TRACON
Sun 09:04:00 AM 42.1804 -87.3090 66° East  Level FlightAware Approximate
Sun 09:04:12 AM 42.1333 -87.7167 75° East 296 341 10,800  Level Chicago TRACON
Sun 09:04:42 AM 42.1411 -87.6717 77° East 296 341 11,900 2,152 Climbing Chicago Center
Sun 09:05:00 AM 42.2314 -87.1560 66° East  Level FlightAware Approximate
Sun 09:05:44 AM 42.1667 -87.5600 73° East 313 360 14,100  Level Chicago Center
Sun 09:06:00 AM 42.2668 -86.9983 86° East  Level FlightAware Approximate
Sun 09:06:45 AM 42.1958 -87.4314 73° East 359 413 15,800  Level Chicago Center
Sun 09:07:47 AM 42.2269 -87.2936 73° East 383 441 17,900 1,951 Climbing Chicago Center
Sun 09:08:48 AM 42.2583 -87.1517 73° East 396 456 19,800 1,918 Climbing Chicago Center
Sun 09:09:49 AM 42.2839 -86.9625 80° East 433 498 21,800 1,854 Climbing Chicago Center
Sun 09:10:51 AM 42.2908 -86.7967 87° East 443 510 23,600 1,463 Climbing Chicago Center
Sun 09:11:52 AM 42.2964 -86.6197 88° East 462 532 24,800 1,131 Climbing Chicago Center
Sun 09:12:53 AM 42.3031 -86.4483 87° East 479 551 25,900 1,171 Climbing Chicago Center
Sun 09:13:55 AM 42.3097 -86.2650 87° East 490 564 27,200 1,268 Climbing Chicago Center
Sun 09:14:56 AM 42.3169 -86.0778 87° East 501 577 28,500 1,366 Climbing Chicago Center
Sun 09:15:58 AM 42.3139 -85.8533 91° East 502 578 30,000 1,220 Climbing Chicago Center
Sun 09:16:59 AM 42.3103 -85.6639 91° East 508 585 31,000 878 Climbing Chicago Center
Sun 09:18:01 AM 42.3086 -85.4719 91° East 513 590 31,800 732 Climbing Chicago Center
Sun 09:19:02 AM 42.3053 -85.2767 91° East 519 597 32,500 634 Climbing Chicago Center
Sun 09:20:04 AM 42.3017 -85.0794 91° East 526 605 33,100 585 Climbing Chicago Center
Sun 09:21:05 AM 42.2972 -84.8814 92° East 529 609 33,700 634 Climbing Chicago Center
Sun 09:22:07 AM 42.2922 -84.6817 92° East 534 615 34,400 829 Climbing Chicago Center
Sun 09:23:08 AM 42.2903 -84.4425 91° East 533 613 35,400 878 Climbing Chicago Center
Sun 09:24:10 AM 42.3136 -84.2675 80° East 529 609 36,200 738 Climbing Cleveland Center
Sun 09:25:10 AM 42.3403 -84.0781 79° East 524 603 36,900 400 Climbing Cleveland Center
Sun 09:26:10 AM 42.3689 -83.8911 78° East 519 597 37,000 50 Climbing Cleveland Center
Sun 09:27:10 AM 42.3953 -83.6956 80° East 519 597 37,000  Level Cleveland Center
Sun 09:28:10 AM 42.4133 -83.4828 83° East 519 597 37,000  Level Cleveland Center
Sun 09:29:10 AM 42.4181 -83.2861 88° East 519 597 37,000  Level Cleveland Center
Sun 09:30:10 AM 42.4267 -83.0894 87° East 513 590 37,000  Level Cleveland Center
Sun 09:31:10 AM 42.4328 -82.8900 88° East 513 590 37,000  Level Cleveland Center
Sun 09:32:10 AM 42.4386 -82.6933 88° East 518 596 37,000  Level Cleveland Center
Sun 09:33:10 AM 42.4444 -82.4936 88° East 518 596 37,000  Level Cleveland Center
Sun 09:34:10 AM 42.4494 -82.2997 88° East 518 596 37,000  Level Cleveland Center
Sun 09:35:10 AM 42.4539 -82.1422 88° East 518 596 37,000  Level Cleveland Center
Sun 09:36:10 AM 42.4589 -81.9086 88° East 513 590 37,000  Level Cleveland Center
Sun 09:37:10 AM 42.4650 -81.7314 87° East 518 596 37,000  Level Cleveland Center
Sun 09:38:10 AM 42.4667 -81.5372 89° East 518 596 37,000  Level Cleveland Center
Sun 09:39:10 AM 42.4725 -81.3264 88° East 513 590 37,000  Level Cleveland Center
Sun 09:40:10 AM 42.4756 -81.1264 89° East 518 596 37,000  Level Cleveland Center
Sun 09:41:10 AM 42.4783 -80.9294 89° East 518 596 37,000  Level Cleveland Center
Sun 09:42:10 AM 42.4831 -80.7353 88° East 513 590 37,000  Level Cleveland Center
Sun 09:43:10 AM 42.4853 -80.5408 89° East 513 590 37,000  Level Cleveland Center
Sun 09:44:10 AM 42.4869 -80.3467 89° East 513 590 37,000  Level Cleveland Center
Sun 09:45:10 AM 42.4886 -80.1467 89° East 519 597 37,000  Level Cleveland Center
Sun 09:46:10 AM 42.4900 -79.9750 89° East 514 592 37,000  Level Cleveland Center
Sun 09:47:10 AM 42.4950 -79.7778 88° East 514 592 37,000  Level Cleveland Center
Sun 09:48:10 AM 42.4933 -79.5836 91° East 514 592 37,000  Level Cleveland Center
Sun 09:49:10 AM 42.4936 -79.3892 90° East 514 592 37,000  Level Cleveland Center
Sun 09:50:10 AM 42.5103 -79.1947 83° East 514 592 37,000  Level Cleveland Center
Sun 09:51:10 AM 42.5558 -79.0019 72° East 520 598 37,000  Level Cleveland Center
Sun 09:52:10 AM 42.6008 -78.8119 72° East 527 606 37,000  Level Cleveland Center
Sun 09:53:10 AM 42.6436 -78.6214 73° East 527 606 37,000  Level Cleveland Center
Sun 09:54:10 AM 42.6861 -78.4281 73° East 532 612 37,000  Level Cleveland Center
Sun 09:55:10 AM 42.7303 -78.2372 72° East 532 612 37,000  Level Cleveland Center
Sun 09:56:10 AM 42.7722 -78.0461 73° East 532 612 37,000  Level Cleveland Center
Sun 09:57:10 AM 42.8133 -77.8492 74° East 527 606 37,000  Level Cleveland Center
Sun 09:58:10 AM 42.8589 -77.6631 71° East 522 601 37,000  Level Cleveland Center
Sun 09:59:10 AM 42.9394 -77.4719 60° Northeast 522 601 37,000  Level Cleveland Center
Sun 10:01:26 AM 43.1078 -77.0936 59° Northeast 522 601 37,000  Level Boston Center
Sun 10:02:26 AM 43.1858 -76.9172 59° Northeast 527 606 37,000  Level Boston Center
Sun 10:03:26 AM 43.2614 -76.7431 59° Northeast 532 612 37,000  Level Boston Center
Sun 10:04:26 AM 43.3389 -76.5658 59° Northeast 538 619 37,000 -250 Level Boston Center
Sun 10:05:26 AM 43.4097 -76.3875 61° Northeast 538 619 36,500 -1,150 Descending Boston Center
Sun 10:06:26 AM 43.4719 -76.2083 64° Northeast 524 603 34,700 -1,800 Descending Boston Center
Sun 10:07:26 AM 43.5342 -76.0261 65° Northeast 519 597 32,900 -1,800 Descending Boston Center
Sun 10:08:26 AM 43.6006 -75.8350 64° Northeast 531 611 31,100 -1,850 Descending Boston Center
Sun 10:09:26 AM 43.6708 -75.6322 64° Northeast 531 611 29,200 -1,850 Descending Boston Center
Sun 10:10:26 AM 43.7322 -75.4514 65° Northeast 531 611 27,400 -1,800 Descending Boston Center
Sun 10:11:26 AM 43.7931 -75.2706 65° Northeast 526 605 25,600 -1,800 Descending Boston Center
Sun 10:12:26 AM 43.8472 -75.0972 67° East 506 582 23,800 -1,850 Descending Boston Center
Sun 10:13:26 AM 43.9008 -74.9356 65° Northeast 481 554 21,900 -1,850 Descending Boston Center
Sun 10:14:26 AM 43.9542 -74.7733 65° Northeast 464 534 20,100 -1,450 Descending Boston Center
Sun 10:15:26 AM 44.0031 -74.6222 66° East 441 507 19,000 -550 Descending Boston Center
Sun 10:16:26 AM 44.0517 -74.4736 65° Northeast 430 495 19,000 -350 Level Boston Center
Sun 10:17:26 AM 44.1000 -74.3222 66° East 425 489 18,300 -1,300 Descending Boston Center
Sun 10:18:26 AM 44.1461 -74.1761 66° East 419 482 16,400 -1,650 Descending Boston Center
Sun 10:19:26 AM 44.1897 -74.0497 64° Northeast 405 466 15,000 -1,600 Descending Boston Center
Sun 10:20:26 AM 44.2375 -73.8975 66° East 395 455 13,200 -1,600 Descending Boston Center
Sun 10:21:26 AM 44.2703 -73.7678 71° East 375 432 11,800 -1,450 Descending Boston Center
Sun 10:22:26 AM 44.2925 -73.6525 75° East 321 369 10,300 -1,450 Descending Boston Center
Sun 10:23:26 AM 44.3122 -73.5397 76° East 303 349 8,900 -1,400 Descending Boston Center
Sun 10:24:26 AM 44.3300 -73.4239 78° East 297 342 7,500 -1,400 Descending Boston Center
Sun 10:25:26 AM 44.3456 -73.3108 79° East 297 342 6,100 -750 Descending Boston Center
Sun 10:26:26 AM 44.3461 -73.2181 89° East 263 303 6,000 -50 Descending Boston Center
Sun 10:27:26 AM 44.3111 -73.1594 130° Southeast 195 224 6,000 -550 Level Boston Center
Sun 10:28:26 AM 44.3011 -73.1014 104° East 175 201 4,900 -1,000 Descending Boston Center
Sun 10:29:26 AM 44.3347 -73.0439 51° Northeast 158 182 4,000 -900 Descending Boston Center

Login

Don't have an account? Register now (free) for customized features, flight alerts, and more!